createdAt,value
2018-07-11T00:00:39.191Z,12.82
2018-07-11T00:01:39.144Z,12.79
2018-07-11T00:02:39.093Z,12.68
2018-07-11T00:03:39.088Z,12.65
2018-07-11T00:04:38.996Z,12.60
2018-07-11T00:05:38.948Z,12.62
2018-07-11T00:06:38.902Z,12.64
2018-07-11T00:07:38.846Z,12.65
2018-07-11T00:08:38.830Z,12.60
2018-07-11T00:09:38.749Z,12.67
2018-07-11T00:10:38.701Z,12.58
2018-07-11T00:11:38.650Z,12.62
2018-07-11T00:12:38.628Z,12.57
2018-07-11T00:13:38.556Z,12.46
2018-07-11T00:14:38.503Z,12.43
2018-07-11T00:15:38.454Z,12.57
2018-07-11T00:16:38.405Z,12.45
2018-07-11T00:17:38.389Z,12.50
2018-07-11T00:18:38.307Z,12.46
2018-07-11T00:19:38.292Z,12.45
2018-07-11T00:20:38.213Z,12.43
2018-07-11T00:21:38.160Z,12.47
2018-07-11T00:22:38.111Z,12.37
2018-07-11T00:23:38.064Z,12.47
2018-07-11T00:24:38.061Z,12.49
2018-07-11T00:25:37.962Z,12.49
2018-07-11T00:26:37.913Z,12.46
2018-07-11T00:27:37.863Z,12.45
2018-07-11T00:28:37.818Z,12.45
2018-07-11T00:29:37.798Z,12.39
2018-07-11T00:30:37.716Z,12.42
2018-07-11T00:31:37.672Z,12.29
2018-07-11T00:32:37.653Z,12.36
2018-07-11T00:33:37.574Z,12.39
2018-07-11T00:34:37.521Z,12.37
2018-07-11T00:35:37.471Z,12.43
2018-07-11T00:36:37.454Z,12.32
2018-07-11T00:37:37.418Z,12.31
2018-07-11T00:38:37.328Z,12.35
2018-07-11T00:39:37.273Z,12.29
2018-07-11T00:40:37.224Z,12.31
2018-07-11T00:41:37.180Z,12.35
2018-07-11T00:42:37.159Z,12.35
2018-07-11T00:43:37.126Z,12.36
2018-07-11T00:44:37.028Z,12.32
2018-07-11T00:45:36.980Z,12.27
2018-07-11T00:46:36.929Z,12.39
2018-07-11T00:47:36.878Z,12.27
2018-07-11T00:48:36.864Z,12.17
2018-07-11T00:49:36.781Z,12.29
2018-07-11T00:50:36.734Z,12.21
2018-07-11T00:51:36.682Z,12.21
2018-07-11T00:52:36.666Z,12.25
2018-07-11T00:53:36.589Z,12.20
2018-07-11T00:54:36.545Z,12.15
2018-07-11T00:55:36.484Z,12.28
2018-07-11T00:56:36.467Z,12.32
2018-07-11T00:57:36.432Z,12.21
2018-07-11T00:58:36.337Z,12.36
2018-07-11T00:59:36.286Z,12.37
2018-07-11T01:00:36.237Z,12.27
2018-07-11T01:01:36.189Z,12.31
2018-07-11T01:02:36.172Z,12.20
2018-07-11T01:03:36.091Z,12.27
2018-07-11T01:04:36.041Z,12.20
2018-07-11T01:05:36.030Z,12.28
2018-07-11T01:06:35.943Z,12.27
2018-07-11T01:07:35.926Z,12.20
2018-07-11T01:08:35.849Z,12.31
2018-07-11T01:09:35.833Z,12.28
2018-07-11T01:10:35.746Z,12.21
2018-07-11T01:11:35.694Z,12.27
2018-07-11T01:12:35.648Z,12.25
2018-07-11T01:13:35.602Z,12.25
2018-07-11T01:14:35.581Z,12.29
2018-07-11T01:15:35.500Z,12.25
2018-07-11T01:16:35.452Z,12.18
2018-07-11T01:17:35.403Z,12.15
2018-07-11T01:18:35.355Z,12.17
2018-07-11T01:19:35.337Z,12.18
2018-07-11T01:20:35.254Z,12.18
2018-07-11T01:21:35.203Z,12.25
2018-07-11T01:22:35.157Z,12.21
2018-07-11T01:23:35.104Z,12.31
2018-07-11T01:24:35.094Z,12.25
2018-07-11T01:25:35.007Z,12.32
2018-07-11T01:26:34.958Z,12.28
2018-07-11T01:27:34.933Z,12.37
2018-07-11T01:28:34.861Z,12.40
2018-07-11T01:29:34.809Z,12.37
2018-07-11T01:30:34.796Z,12.40
2018-07-11T01:31:34.711Z,12.31
2018-07-11T01:32:34.662Z,12.32
2018-07-11T01:33:34.612Z,12.28
2018-07-11T01:34:34.562Z,12.27
2018-07-11T01:35:34.546Z,12.29
2018-07-11T01:36:34.467Z,12.37
2018-07-11T01:37:34.416Z,12.32
2018-07-11T01:38:34.371Z,12.35
2018-07-11T01:39:34.318Z,12.42
2018-07-11T01:40:34.299Z,12.40
2018-07-11T01:41:34.219Z,12.36
2018-07-11T01:42:34.208Z,12.39
2018-07-11T01:43:34.122Z,12.45
2018-07-11T01:44:34.072Z,12.47
2018-07-11T01:45:34.054Z,12.42
2018-07-11T01:46:33.975Z,12.36
2018-07-11T01:47:33.924Z,12.42
2018-07-11T01:48:33.874Z,12.37
2018-07-11T01:49:33.861Z,12.42
2018-07-11T01:50:33.779Z,12.54
2018-07-11T01:51:33.731Z,12.47
2018-07-11T01:52:33.682Z,12.46
2018-07-11T01:53:33.632Z,12.46
2018-07-11T01:54:33.626Z,12.45
2018-07-11T01:55:33.532Z,12.40
2018-07-11T01:56:33.484Z,12.42
2018-07-11T01:57:33.437Z,12.35
2018-07-11T01:58:33.388Z,12.36
2018-07-11T01:59:33.371Z,12.32
2018-07-11T02:00:33.291Z,12.35
2018-07-11T02:01:33.240Z,12.32
2018-07-11T02:02:33.194Z,12.27
2018-07-11T02:03:33.140Z,12.35
2018-07-11T02:04:33.124Z,12.32
2018-07-11T02:05:33.049Z,12.36
2018-07-11T02:06:32.994Z,12.39
2018-07-11T02:07:32.946Z,12.49
2018-07-11T02:08:32.896Z,12.39
2018-07-11T02:09:32.879Z,12.53
2018-07-11T02:10:32.799Z,12.53
2018-07-11T02:11:32.748Z,12.45
2018-07-11T02:12:32.700Z,12.45
2018-07-11T02:13:32.683Z,12.45
2018-07-11T02:14:32.600Z,12.57
2018-07-11T02:15:32.554Z,12.47
2018-07-11T02:16:32.505Z,12.43
2018-07-11T02:17:32.503Z,12.60
2018-07-11T02:18:32.407Z,12.60
2018-07-11T02:19:32.358Z,12.67
2018-07-11T02:20:32.309Z,12.58
2018-07-11T02:21:32.259Z,12.58
2018-07-11T02:22:32.245Z,12.62
2018-07-11T02:23:32.160Z,12.65
2018-07-11T02:24:32.118Z,12.68
2018-07-11T02:25:32.067Z,12.64
2018-07-11T02:26:32.021Z,12.68
2018-07-11T02:27:32.008Z,12.68
2018-07-11T02:28:31.920Z,12.62
2018-07-11T02:29:31.872Z,12.64
2018-07-11T02:30:31.821Z,12.64
2018-07-11T02:31:31.771Z,12.57
2018-07-11T02:32:31.756Z,12.61
2018-07-11T02:33:31.678Z,12.65
2018-07-11T02:34:31.626Z,12.64
2018-07-11T02:35:31.596Z,12.64
2018-07-11T02:36:31.528Z,12.61
2018-07-11T02:37:31.516Z,12.65
2018-07-11T02:38:31.436Z,12.68
2018-07-11T02:39:31.381Z,12.64
2018-07-11T02:40:31.365Z,12.79
2018-07-11T02:41:31.286Z,12.70
2018-07-11T02:42:31.236Z,12.80
2018-07-11T02:43:31.189Z,12.76
2018-07-11T02:44:31.141Z,12.83
2018-07-11T02:45:31.121Z,12.78
2018-07-11T02:46:31.044Z,12.72
2018-07-11T02:47:31.025Z,12.79
2018-07-11T02:48:30.978Z,12.78
2018-07-11T02:49:30.894Z,12.80
2018-07-11T02:50:30.844Z,12.80
2018-07-11T02:51:30.930Z,12.82
2018-07-11T02:52:30.748Z,12.76
2018-07-11T02:53:30.704Z,12.79
2018-07-11T02:54:30.651Z,12.80
2018-07-11T02:55:30.602Z,12.79
2018-07-11T02:56:30.588Z,12.83
2018-07-11T02:57:30.502Z,12.82
2018-07-11T02:58:30.456Z,12.83
2018-07-11T02:59:30.437Z,12.80
2018-07-11T03:00:30.390Z,12.75
2018-07-11T03:01:30.308Z,12.76
2018-07-11T03:02:30.301Z,12.82
2018-07-11T03:03:30.216Z,12.73
2018-07-11T03:04:30.161Z,12.82
2018-07-11T03:05:30.113Z,12.73
2018-07-11T03:06:30.074Z,12.83
2018-07-11T03:07:30.047Z,12.76
2018-07-11T03:08:29.967Z,12.80
2018-07-11T03:09:29.950Z,12.75
2018-07-11T03:10:29.870Z,12.80
2018-07-11T03:11:29.822Z,12.64
2018-07-11T03:12:29.824Z,12.76
2018-07-11T03:13:29.725Z,12.73
2018-07-11T03:14:29.674Z,12.72
2018-07-11T03:15:29.626Z,12.70
2018-07-11T03:16:29.580Z,12.73
2018-07-11T03:17:29.564Z,12.70
2018-07-11T03:18:29.479Z,12.80
2018-07-11T03:19:29.429Z,12.73
2018-07-11T03:20:29.413Z,12.75
2018-07-11T03:21:29.367Z,12.79
2018-07-11T03:22:29.283Z,12.80
2018-07-11T03:23:29.269Z,12.86
2018-07-11T03:24:29.186Z,12.83
2018-07-11T03:25:29.138Z,12.90
2018-07-11T03:26:29.090Z,12.83
2018-07-11T03:27:29.072Z,12.85
2018-07-11T03:28:28.993Z,12.82
2018-07-11T03:29:28.976Z,12.91
2018-07-11T03:30:28.935Z,12.93
2018-07-11T03:31:28.846Z,12.93
2018-07-11T03:32:28.803Z,12.86
2018-07-11T03:33:28.754Z,12.93
2018-07-11T03:34:28.702Z,12.93
2018-07-11T03:35:28.681Z,12.90
2018-07-11T03:36:28.604Z,12.93
2018-07-11T03:37:28.556Z,12.85
2018-07-11T03:38:28.537Z,12.86
2018-07-11T03:39:28.456Z,12.91
2018-07-11T03:40:28.411Z,12.90
2018-07-11T03:41:28.391Z,12.87
2018-07-11T03:42:28.343Z,12.90
2018-07-11T03:43:28.262Z,12.91
2018-07-11T03:44:28.246Z,12.91
2018-07-11T03:45:28.193Z,12.93
2018-07-11T03:46:28.117Z,12.90
2018-07-11T03:47:28.099Z,12.91
2018-07-11T03:48:28.018Z,12.95
2018-07-11T03:49:28.002Z,12.90
2018-07-11T03:50:27.922Z,12.87
2018-07-11T03:51:27.873Z,12.93
2018-07-11T03:52:27.824Z,12.93
2018-07-11T03:53:27.775Z,12.91
2018-07-11T03:54:27.757Z,12.95
2018-07-11T03:55:27.680Z,12.94
2018-07-11T03:56:27.628Z,12.85
2018-07-11T03:57:27.582Z,12.82
2018-07-11T03:58:27.536Z,12.83
2018-07-11T03:59:27.514Z,12.82
2018-07-11T04:00:27.434Z,12.85
2018-07-11T04:01:27.386Z,12.90
2018-07-11T04:02:27.337Z,12.90
2018-07-11T04:03:27.328Z,12.90
2018-07-11T04:04:27.243Z,12.85
2018-07-11T04:05:27.194Z,12.93
2018-07-11T04:06:27.146Z,12.97
2018-07-11T04:07:27.093Z,12.90
2018-07-11T04:08:27.085Z,12.91
2018-07-11T04:09:26.995Z,12.86
2018-07-11T04:10:26.948Z,12.85
2018-07-11T04:11:26.902Z,12.86
2018-07-11T04:12:26.850Z,12.93
2018-07-11T04:13:26.833Z,12.93
2018-07-11T04:14:26.753Z,12.90
2018-07-11T04:15:26.705Z,13.03
2018-07-11T04:16:26.654Z,12.90
2018-07-11T04:17:26.646Z,13.00
2018-07-11T04:18:26.560Z,12.90
2018-07-11T04:19:26.507Z,12.91
2018-07-11T04:20:26.462Z,12.97
2018-07-11T04:21:26.412Z,12.95
2018-07-11T04:22:26.416Z,13.00
2018-07-11T04:23:26.315Z,13.00
2018-07-11T04:24:26.266Z,12.94
2018-07-11T04:25:26.220Z,12.94
2018-07-11T04:26:26.170Z,12.94
2018-07-11T04:27:26.162Z,12.98
2018-07-11T04:28:26.074Z,12.87
2018-07-11T04:29:26.025Z,12.90
2018-07-11T04:30:25.979Z,12.98
2018-07-11T04:31:25.961Z,12.94
2018-07-11T04:32:25.908Z,13.03
2018-07-11T04:33:25.882Z,12.91
2018-07-11T04:34:25.782Z,12.95
2018-07-11T04:35:25.796Z,12.93
2018-07-11T04:36:25.685Z,12.95
2018-07-11T04:37:25.673Z,12.94
2018-07-11T04:38:25.586Z,12.95
2018-07-11T04:39:25.537Z,13.00
2018-07-11T04:40:25.489Z,12.93
2018-07-11T04:41:25.441Z,12.94
2018-07-11T04:42:25.435Z,13.04
2018-07-11T04:43:25.343Z,13.05
2018-07-11T04:44:25.297Z,12.94
2018-07-11T04:45:25.246Z,13.08
2018-07-11T04:46:25.204Z,12.93
2018-07-11T04:47:25.181Z,13.04
2018-07-11T04:48:25.100Z,13.05
2018-07-11T04:49:25.051Z,13.11
2018-07-11T04:50:25.034Z,12.97
2018-07-11T04:51:24.958Z,13.03
2018-07-11T04:52:24.938Z,13.08
2018-07-11T04:53:24.855Z,13.03
2018-07-11T04:54:24.853Z,13.04
2018-07-11T04:55:24.759Z,13.08
2018-07-11T04:56:24.714Z,13.01
2018-07-11T04:57:24.664Z,13.05
2018-07-11T04:58:24.645Z,13.04
2018-07-11T04:59:24.569Z,13.00
2018-07-11T05:00:24.516Z,12.98
2018-07-11T05:01:24.468Z,12.97
2018-07-11T05:02:24.420Z,12.97
2018-07-11T05:03:24.402Z,12.97
2018-07-11T05:04:24.355Z,12.94
2018-07-11T05:05:24.276Z,12.93
2018-07-11T05:06:24.231Z,12.95
2018-07-11T05:07:24.209Z,12.98
2018-07-11T05:08:24.147Z,12.93
2018-07-11T05:09:24.081Z,12.98
2018-07-11T05:10:24.035Z,12.86
2018-07-11T05:11:24.018Z,12.97
2018-07-11T05:12:23.966Z,13.00
2018-07-11T05:13:23.885Z,13.00
2018-07-11T05:14:23.837Z,12.94
2018-07-11T05:15:23.788Z,13.03
2018-07-11T05:16:23.739Z,13.08
2018-07-11T05:17:23.723Z,13.04
2018-07-11T05:18:23.644Z,13.04
2018-07-11T05:19:23.592Z,13.18
2018-07-11T05:20:23.543Z,13.20
2018-07-11T05:21:23.497Z,13.30
2018-07-11T05:22:23.481Z,13.35
2018-07-11T05:23:23.400Z,13.39
2018-07-11T05:24:23.354Z,13.49
2018-07-11T05:25:23.302Z,13.44
2018-07-11T05:26:23.253Z,13.50
2018-07-11T05:27:23.239Z,13.42
2018-07-11T05:28:23.194Z,13.38
2018-07-11T05:29:23.109Z,13.42
2018-07-11T05:30:23.065Z,13.50
2018-07-11T05:31:23.012Z,13.37
2018-07-11T05:32:22.964Z,13.41
2018-07-11T05:33:22.949Z,13.39
2018-07-11T05:34:22.866Z,13.31
2018-07-11T05:35:22.818Z,13.49
2018-07-11T05:36:22.782Z,13.44
2018-07-11T05:37:22.723Z,13.46
2018-07-11T05:38:22.724Z,13.37
2018-07-11T05:39:22.623Z,13.49
2018-07-11T05:40:22.575Z,13.50
2018-07-11T05:41:22.530Z,13.47
2018-07-11T05:42:22.488Z,13.47
2018-07-11T05:43:22.471Z,13.49
2018-07-11T05:44:22.381Z,13.53
2018-07-11T05:45:22.339Z,13.54
2018-07-11T05:46:22.288Z,13.53
2018-07-11T05:47:22.237Z,13.59
2018-07-11T05:48:22.245Z,13.59
2018-07-11T05:49:22.143Z,13.62
2018-07-11T05:50:22.093Z,13.74
2018-07-11T05:51:22.048Z,13.72
2018-07-11T05:52:21.996Z,13.75
2018-07-11T05:53:21.993Z,13.93
2018-07-11T05:54:21.934Z,13.89
2018-07-11T05:55:21.855Z,13.86
2018-07-11T05:56:21.806Z,13.89
2018-07-11T05:57:21.757Z,13.95
2018-07-11T05:58:21.745Z,13.95
2018-07-11T05:59:21.701Z,14.07
2018-07-11T06:00:21.610Z,14.18
2018-07-11T06:01:21.566Z,14.18
2018-07-11T06:02:21.519Z,14.22
2018-07-11T06:03:21.492Z,14.23
2018-07-11T06:04:21.454Z,14.23
2018-07-11T06:05:21.460Z,14.23
2018-07-11T06:06:21.336Z,14.22
2018-07-11T06:07:21.276Z,14.15
2018-07-11T06:08:21.266Z,14.18
2018-07-11T06:09:21.183Z,14.12
2018-07-11T06:10:21.138Z,14.07
2018-07-11T06:11:21.088Z,14.03
2018-07-11T06:12:21.039Z,14.12
2018-07-11T06:13:21.090Z,14.05
2018-07-11T06:14:20.942Z,14.07
2018-07-11T06:15:20.896Z,14.10
2018-07-11T06:16:20.859Z,14.00
2018-07-11T06:17:20.801Z,14.08
2018-07-11T06:18:20.783Z,14.05
2018-07-11T06:19:20.700Z,14.08
2018-07-11T06:20:20.655Z,14.18
2018-07-11T06:21:20.606Z,14.17
2018-07-11T06:22:20.609Z,14.17
2018-07-11T06:23:20.511Z,14.22
2018-07-11T06:24:20.467Z,14.25
2018-07-11T06:25:20.415Z,14.25
2018-07-11T06:26:20.366Z,14.37
2018-07-11T06:27:20.353Z,14.35
2018-07-11T06:28:20.272Z,14.40
2018-07-11T06:29:20.225Z,14.41
2018-07-11T06:30:20.218Z,14.44
2018-07-11T06:31:20.127Z,14.54
2018-07-11T06:32:20.085Z,14.45
2018-07-11T06:33:20.096Z,14.53
2018-07-11T06:34:19.986Z,14.58
2018-07-11T06:35:19.975Z,14.58
2018-07-11T06:36:19.889Z,14.58
2018-07-11T06:37:19.842Z,14.54
2018-07-11T06:38:19.795Z,14.45
2018-07-11T06:39:19.801Z,14.48
2018-07-11T06:40:19.733Z,14.51
2018-07-11T06:41:19.650Z,14.55
2018-07-11T06:42:19.605Z,14.53
2018-07-11T06:43:19.554Z,14.47
2018-07-11T06:44:19.512Z,14.53
2018-07-11T06:45:19.494Z,14.50
2018-07-11T06:46:19.418Z,14.54
2018-07-11T06:47:19.363Z,14.65
2018-07-11T06:48:19.319Z,14.62
2018-07-11T06:49:19.268Z,14.66
2018-07-11T06:50:19.254Z,14.60
2018-07-11T06:51:19.176Z,14.65
2018-07-11T06:52:19.130Z,14.69
2018-07-11T06:53:19.113Z,14.81
2018-07-11T06:54:19.035Z,14.81
2018-07-11T06:55:18.984Z,14.82
2018-07-11T06:56:18.974Z,14.79
2018-07-11T06:57:18.893Z,14.82
2018-07-11T06:58:18.841Z,14.70
2018-07-11T06:59:18.844Z,14.81
2018-07-11T07:00:18.748Z,14.79
2018-07-11T07:01:18.701Z,14.81
2018-07-11T07:02:18.653Z,14.79
2018-07-11T07:03:18.605Z,14.77
2018-07-11T07:04:18.589Z,14.69
2018-07-11T07:05:18.515Z,14.68
2018-07-11T07:06:18.463Z,14.66
2018-07-11T07:07:18.419Z,14.66
2018-07-11T07:08:18.402Z,14.62
2018-07-11T07:09:18.352Z,14.53
2018-07-11T07:10:18.273Z,14.65
2018-07-11T07:11:18.224Z,14.66
2018-07-11T07:12:18.180Z,14.65
2018-07-11T07:13:18.138Z,14.70
2018-07-11T07:14:18.118Z,14.70
2018-07-11T07:15:18.036Z,14.81
2018-07-11T07:16:17.989Z,14.79
2018-07-11T07:17:17.943Z,14.82
2018-07-11T07:18:17.933Z,14.86
2018-07-11T07:19:17.846Z,14.82
2018-07-11T07:20:17.799Z,14.91
2018-07-11T07:21:17.753Z,14.78
2018-07-11T07:22:17.740Z,14.86
2018-07-11T07:23:17.656Z,14.89
2018-07-11T07:24:17.609Z,14.78
2018-07-11T07:25:17.562Z,14.91
2018-07-11T07:26:17.522Z,14.91
2018-07-11T07:27:17.500Z,14.82
2018-07-11T07:28:17.421Z,14.94
2018-07-11T07:29:17.371Z,14.85
2018-07-11T07:30:17.327Z,14.91
2018-07-11T07:31:17.312Z,14.86
2018-07-11T07:32:17.231Z,14.84
2018-07-11T07:33:17.183Z,14.78
2018-07-11T07:34:17.135Z,14.89
2018-07-11T07:35:17.087Z,14.82
2018-07-11T07:36:17.079Z,14.96
2018-07-11T07:37:17.000Z,15.03
2018-07-11T07:38:16.945Z,15.03
2018-07-11T07:39:16.897Z,15.02
2018-07-11T07:40:16.851Z,15.06
2018-07-11T07:41:16.838Z,15.02
2018-07-11T07:42:16.756Z,15.02
2018-07-11T07:43:16.708Z,15.03
2018-07-11T07:44:16.667Z,15.02
2018-07-11T07:45:16.613Z,15.07
2018-07-11T07:46:16.607Z,15.17
2018-07-11T07:47:16.521Z,15.07
2018-07-11T07:48:16.472Z,15.15
2018-07-11T07:49:16.428Z,15.03
2018-07-11T07:50:16.380Z,15.03
2018-07-11T07:51:16.371Z,14.99
2018-07-11T07:52:16.290Z,14.99
2018-07-11T07:53:16.237Z,15.03
2018-07-11T07:54:16.190Z,15.03
2018-07-11T07:55:16.142Z,15.03
2018-07-11T07:56:16.136Z,15.06
2018-07-11T07:57:16.049Z,15.11
2018-07-11T07:58:16.005Z,15.07
2018-07-11T07:59:15.957Z,15.09
2018-07-11T08:00:15.906Z,15.11
2018-07-11T08:01:15.895Z,15.00
2018-07-11T08:02:15.854Z,15.00
2018-07-11T08:03:15.763Z,15.07
2018-07-11T08:04:15.719Z,15.09
2018-07-11T08:05:15.674Z,15.03
2018-07-11T08:06:15.622Z,15.19
2018-07-11T08:07:15.608Z,15.07
2018-07-11T08:08:15.527Z,15.21
2018-07-11T08:09:15.485Z,15.17
2018-07-11T08:10:15.435Z,15.15
2018-07-11T08:11:15.387Z,15.10
2018-07-11T08:12:15.390Z,15.17
2018-07-11T08:13:15.299Z,15.17
2018-07-11T08:14:15.247Z,15.18
2018-07-11T08:15:15.199Z,15.18
2018-07-11T08:16:15.152Z,15.10
2018-07-11T08:17:15.143Z,15.19
2018-07-11T08:18:15.060Z,15.21
2018-07-11T08:19:15.011Z,15.21
2018-07-11T08:20:14.963Z,15.25
2018-07-11T08:21:14.918Z,15.21
2018-07-11T08:22:14.911Z,15.21
2018-07-11T08:23:14.823Z,15.19
2018-07-11T08:24:14.773Z,15.21
2018-07-11T08:25:14.727Z,15.35
2018-07-11T08:26:14.681Z,15.42
2018-07-11T08:27:14.721Z,15.55
2018-07-11T08:28:14.626Z,15.64
2018-07-11T08:29:14.540Z,15.62
2018-07-11T08:30:14.496Z,15.80
2018-07-11T08:31:14.449Z,15.79
2018-07-11T08:32:14.403Z,15.82
2018-07-11T08:33:14.388Z,15.83
2018-07-11T08:34:14.341Z,15.86
2018-07-11T08:35:14.330Z,15.94
2018-07-11T08:36:14.217Z,15.94
2018-07-11T08:37:14.167Z,15.97
2018-07-11T08:38:14.123Z,16.09
2018-07-11T08:39:14.072Z,16.21
2018-07-11T08:40:14.059Z,16.29
2018-07-11T08:41:13.995Z,16.38
2018-07-11T08:42:14.015Z,16.54
2018-07-11T08:43:13.921Z,16.56
2018-07-11T08:44:13.843Z,16.66
2018-07-11T08:45:13.793Z,16.75
2018-07-11T08:46:13.748Z,16.68
2018-07-11T08:47:13.710Z,16.76
2018-07-11T08:48:13.792Z,16.69
2018-07-11T08:49:13.610Z,16.74
2018-07-11T08:50:13.566Z,16.69
2018-07-11T08:51:13.518Z,16.57
2018-07-11T08:52:13.472Z,16.53
2018-07-11T08:53:13.459Z,16.58
2018-07-11T08:54:13.413Z,16.50
2018-07-11T08:55:13.359Z,16.61
2018-07-11T08:56:13.286Z,16.68
2018-07-11T08:57:13.243Z,16.71
2018-07-11T08:58:13.224Z,16.86
2018-07-11T08:59:13.146Z,17.16
2018-07-11T09:00:13.101Z,17.45
2018-07-11T09:01:13.055Z,17.80
2018-07-11T09:02:13.012Z,18.18
2018-07-11T09:03:12.998Z,18.44
2018-07-11T09:04:12.950Z,18.43
2018-07-11T09:05:12.871Z,18.45
2018-07-11T09:06:12.828Z,18.35
2018-07-11T09:07:12.781Z,18.31
2018-07-11T09:08:12.737Z,18.23
2018-07-11T09:09:12.723Z,18.13
2018-07-11T09:10:12.644Z,18.04
2018-07-11T09:11:12.602Z,17.94
2018-07-11T09:12:12.554Z,17.90
2018-07-11T09:13:12.508Z,17.87
2018-07-11T09:14:12.497Z,17.83
2018-07-11T09:15:12.457Z,17.86
2018-07-11T09:16:12.377Z,17.94
2018-07-11T09:17:12.328Z,17.87
2018-07-11T09:18:12.281Z,17.87
2018-07-11T09:19:12.237Z,17.78
2018-07-11T09:20:12.239Z,17.80
2018-07-11T09:21:12.146Z,17.79
2018-07-11T09:22:12.102Z,17.86
2018-07-11T09:23:12.057Z,17.98
2018-07-11T09:24:12.195Z,17.98
2018-07-11T09:25:11.999Z,18.22
2018-07-11T09:26:11.924Z,18.45
2018-07-11T09:27:11.910Z,18.77
2018-07-11T09:28:11.870Z,18.88
2018-07-11T09:29:11.785Z,18.83
2018-07-11T09:30:11.747Z,19.02
2018-07-11T09:31:11.705Z,19.14
2018-07-11T09:32:11.661Z,19.27
2018-07-11T09:33:11.665Z,19.45
2018-07-11T09:34:11.564Z,19.40
2018-07-11T09:35:11.519Z,19.24
2018-07-11T09:36:11.476Z,19.26
2018-07-11T09:37:11.430Z,19.22
2018-07-11T09:38:11.416Z,19.18
2018-07-11T09:39:11.342Z,19.15
2018-07-11T09:40:11.299Z,19.14
2018-07-11T09:41:11.253Z,19.14
2018-07-11T09:42:11.240Z,19.09
2018-07-11T09:43:11.194Z,19.02
2018-07-11T09:44:11.124Z,18.96
2018-07-11T09:45:11.076Z,18.92
2018-07-11T09:46:11.034Z,18.73
2018-07-11T09:47:10.988Z,18.74
2018-07-11T09:48:10.986Z,18.65
2018-07-11T09:49:10.901Z,18.59
2018-07-11T09:50:10.855Z,18.49
2018-07-11T09:51:10.811Z,18.50
2018-07-11T09:52:10.775Z,18.43
2018-07-11T09:53:10.757Z,18.45
2018-07-11T09:54:10.678Z,18.43
2018-07-11T09:55:10.667Z,18.45
2018-07-11T09:56:10.590Z,18.43
2018-07-11T09:57:10.547Z,18.50
2018-07-11T09:58:10.509Z,18.40
2018-07-11T09:59:10.489Z,18.43
2018-07-11T10:00:10.414Z,18.49
2018-07-11T10:01:10.371Z,18.50
2018-07-11T10:02:10.326Z,18.73
2018-07-11T10:03:10.282Z,18.88
2018-07-11T10:04:10.276Z,18.86
2018-07-11T10:05:10.217Z,19.08
2018-07-11T10:06:10.149Z,19.16
2018-07-11T10:07:10.105Z,19.11
2018-07-11T10:08:10.063Z,19.29
2018-07-11T10:09:10.051Z,19.40
2018-07-11T10:10:10.010Z,19.62
2018-07-11T10:11:10.059Z,19.76
2018-07-11T10:12:09.886Z,20.02
2018-07-11T10:13:09.844Z,20.25
2018-07-11T10:14:09.802Z,20.37
2018-07-11T10:15:09.754Z,20.44
2018-07-11T10:16:09.766Z,20.51
2018-07-11T10:17:09.671Z,20.55
2018-07-11T10:18:09.628Z,20.59
2018-07-11T10:19:09.593Z,20.85
2018-07-11T10:20:09.540Z,21.27
2018-07-11T10:21:09.529Z,21.37
2018-07-11T10:22:09.457Z,21.25
2018-07-11T10:23:09.411Z,21.20
2018-07-11T10:24:09.402Z,21.09
2018-07-11T10:25:09.327Z,20.90
2018-07-11T10:26:09.287Z,20.81
2018-07-11T10:27:09.285Z,20.74
2018-07-11T10:28:09.198Z,20.69
2018-07-11T10:29:09.159Z,20.55
2018-07-11T10:30:09.114Z,20.58
2018-07-11T10:31:09.070Z,20.59
2018-07-11T10:32:09.059Z,20.44
2018-07-11T10:33:08.988Z,20.39
2018-07-11T10:34:08.975Z,20.36
2018-07-11T10:35:08.899Z,20.22
2018-07-11T10:36:08.858Z,20.10
2018-07-11T10:37:08.815Z,20.10
2018-07-11T10:38:08.772Z,20.03
2018-07-11T10:39:08.821Z,19.88
2018-07-11T10:40:08.693Z,19.91
2018-07-11T10:41:08.643Z,19.95
2018-07-11T10:42:08.604Z,19.95
2018-07-11T10:43:08.588Z,19.88
2018-07-11T10:44:08.516Z,19.92
2018-07-11T10:45:08.477Z,19.86
2018-07-11T10:46:08.437Z,19.88
2018-07-11T10:47:08.418Z,19.92
2018-07-11T10:48:08.347Z,20.00
2018-07-11T10:49:08.302Z,20.06
2018-07-11T10:50:08.260Z,20.21
2018-07-11T10:51:08.248Z,20.21
2018-07-11T10:52:08.178Z,20.43
2018-07-11T10:53:08.131Z,20.74
2018-07-11T10:54:08.089Z,20.87
2018-07-11T10:55:08.046Z,21.12
2018-07-11T10:56:08.039Z,21.27
2018-07-11T10:57:07.966Z,21.17
2018-07-11T10:58:07.957Z,21.15
2018-07-11T10:59:07.875Z,21.09
2018-07-11T11:00:07.834Z,21.03
2018-07-11T11:01:07.863Z,20.87
2018-07-11T11:02:07.754Z,20.70
2018-07-11T11:03:07.740Z,20.63
2018-07-11T11:04:07.666Z,20.59
2018-07-11T11:05:07.624Z,20.51
2018-07-11T11:06:07.583Z,20.52
2018-07-11T11:07:07.570Z,20.48
2018-07-11T11:08:07.539Z,20.41
2018-07-11T11:09:07.455Z,20.40
2018-07-11T11:10:07.412Z,20.34
2018-07-11T11:11:07.372Z,20.25
2018-07-11T11:12:07.353Z,20.28
2018-07-11T11:13:07.325Z,20.22
2018-07-11T11:14:07.241Z,20.19
2018-07-11T11:15:07.203Z,20.09
2018-07-11T11:16:07.155Z,20.09
2018-07-11T11:17:07.117Z,20.07
2018-07-11T11:18:07.112Z,20.07
2018-07-11T11:19:07.028Z,20.03
2018-07-11T11:20:06.988Z,20.04
2018-07-11T11:21:06.947Z,20.02
2018-07-11T11:22:06.904Z,20.04
2018-07-11T11:23:06.893Z,20.14
2018-07-11T11:24:06.854Z,20.36
2018-07-11T11:25:06.774Z,20.41
2018-07-11T11:26:06.732Z,20.48
2018-07-11T11:27:06.689Z,20.55
2018-07-11T11:28:06.647Z,20.66
2018-07-11T11:29:06.635Z,20.43
2018-07-11T11:30:06.562Z,20.24
2018-07-11T11:31:06.519Z,20.22
2018-07-11T11:32:06.479Z,20.25
2018-07-11T11:33:06.436Z,20.26
2018-07-11T11:34:06.425Z,20.50
2018-07-11T11:35:06.356Z,20.72
2018-07-11T11:36:06.307Z,20.97
2018-07-11T11:37:06.299Z,21.30
2018-07-11T11:38:06.224Z,21.39
2018-07-11T11:39:06.182Z,21.43
2018-07-11T11:40:06.137Z,21.36
2018-07-11T11:41:06.096Z,21.50
2018-07-11T11:42:06.294Z,21.58
2018-07-11T11:43:06.018Z,21.50
2018-07-11T11:44:05.970Z,21.55
2018-07-11T11:45:05.930Z,21.51
2018-07-11T11:46:05.888Z,21.43
2018-07-11T11:47:05.886Z,21.36
2018-07-11T11:48:05.821Z,21.42
2018-07-11T11:49:05.764Z,21.42
2018-07-11T11:50:05.724Z,21.50
2018-07-11T11:51:05.679Z,21.37
2018-07-11T11:52:05.663Z,21.40
2018-07-11T11:53:05.592Z,21.27
2018-07-11T11:54:05.554Z,21.30
2018-07-11T11:55:05.508Z,21.25
2018-07-11T11:56:05.502Z,21.21
2018-07-11T11:57:05.557Z,20.95
2018-07-11T11:58:05.387Z,20.92
2018-07-11T11:59:05.360Z,20.80
2018-07-11T12:00:05.300Z,20.70
2018-07-11T12:01:05.268Z,20.59
2018-07-11T12:02:05.250Z,20.56
2018-07-11T12:03:05.186Z,20.37
2018-07-11T12:04:05.162Z,20.36
2018-07-11T12:05:05.090Z,20.34
2018-07-11T12:06:05.047Z,20.26
2018-07-11T12:07:05.052Z,20.26
2018-07-11T12:08:04.962Z,20.24
2018-07-11T12:09:04.920Z,20.19
2018-07-11T12:10:04.912Z,20.13
2018-07-11T12:11:04.836Z,20.13
2018-07-11T12:12:04.796Z,20.13
2018-07-11T12:13:04.802Z,20.11
2018-07-11T12:14:04.710Z,20.06
2018-07-11T12:15:04.666Z,20.06
2018-07-11T12:16:04.625Z,20.04
2018-07-11T12:17:04.583Z,20.07
2018-07-11T12:18:04.573Z,20.06
2018-07-11T12:19:04.498Z,20.24
2018-07-11T12:20:04.455Z,20.31
2018-07-11T12:21:04.423Z,20.37
2018-07-11T12:22:04.370Z,20.28
2018-07-11T12:23:04.359Z,20.36
2018-07-11T12:24:04.322Z,20.44
2018-07-11T12:25:04.244Z,20.32
2018-07-11T12:26:04.207Z,20.26
2018-07-11T12:27:04.163Z,20.39
2018-07-11T12:28:04.118Z,20.34
2018-07-11T12:29:04.121Z,20.37
2018-07-11T12:30:04.030Z,20.40
2018-07-11T12:31:03.988Z,20.25
2018-07-11T12:32:03.948Z,20.24
2018-07-11T12:33:03.907Z,20.26
2018-07-11T12:34:03.895Z,20.25
2018-07-11T12:35:03.857Z,20.31
2018-07-11T12:36:03.815Z,20.37
2018-07-11T12:37:03.736Z,20.39
2018-07-11T12:38:03.695Z,20.34
2018-07-11T12:39:03.648Z,20.29
2018-07-11T12:40:03.636Z,20.24
2018-07-11T12:41:03.565Z,20.24
2018-07-11T12:42:03.555Z,20.24
2018-07-11T12:43:03.484Z,20.19
2018-07-11T12:44:03.440Z,20.37
2018-07-11T12:45:03.397Z,20.36
2018-07-11T12:46:03.392Z,20.36
2018-07-11T12:47:03.310Z,20.36
2018-07-11T12:48:03.268Z,20.47
2018-07-11T12:49:03.241Z,20.55
2018-07-11T12:50:03.184Z,20.63
2018-07-11T12:51:03.170Z,20.69
2018-07-11T12:52:03.098Z,20.87